Corky — WDC3366 — position and weather

sailwx.info

Track history (hours):
 
Tides and Currents Weather Stations Pressure Air Temp Water Temp Dewpoint Dewpoint Depression Visibility Wind Speed Wind Dir Waves Ship Positions

Corky

Owner: Gulf South Marine Transportation, Inc., New Orleans, LA. More information available from US FCC via Universal Licensing System and Coast Guard Vessel Documentation Center.

Last reported at 2017-Dec-11 17:00 UTC. Time now 2017-Dec-13 01:49 UTC.
Position N 29°34' W 090°55'.

Length 18 m; draft 3.3 m.

Type: Tow > 200 m length. MMSI: 367006780.

Date/timePositionNaut miles runAvg speedWind from/ knotsBaromVisibWave heightAir tempDewpointWater temp
2017-Dec-11 17:00N 29°34' W 090°55'2 3.8
2017-Dec-11 16:26N 29°32' W 090°53'2 3.6
2017-Dec-11 16:01N 29°32' W 090°51'2 3.7
2017-Dec-11 15:30N 29°32' W 090°49'2 3.7
2017-Dec-11 15:00N 29°32' W 090°47'2 3.1
2017-Dec-11 14:30N 29°33' W 090°45'2 3.2
2017-Dec-11 14:01N 29°34' W 090°44'1 2.5
2017-Dec-11 13:30N 29°35' W 090°43'2 3.0
2017-Dec-11 13:01N 29°36' W 090°43'1 2.3
2017-Dec-11 12:30N 29°37' W 090°41'0 0.1
2017-Dec-11 12:00N 29°37' W 090°41'0 0.0
2017-Dec-11 11:30N 29°37' W 090°41'0 0.0
2017-Dec-11 11:00N 29°37' W 090°41'0 0.0
2017-Dec-11 10:30N 29°37' W 090°41'0 0.8
2017-Dec-11 10:00N 29°36' W 090°41'0 0.5
2017-Dec-11 09:30N 29°36' W 090°41'1 1.6
2017-Dec-11 09:01N 29°36' W 090°40'2 3.1
2017-Dec-11 08:30N 29°35' W 090°38'1 2.0
2017-Dec-11 08:01N 29°35' W 090°37'1 2.7
2017-Dec-11 07:30N 29°35' W 090°36'2 3.2
2017-Dec-11 07:00N 29°34' W 090°34'2 3.3
2017-Dec-11 06:30N 29°34' W 090°32'2 3.6
2017-Dec-11 05:55N 29°34' W 090°30'2 3.6
2017-Dec-11 05:21N 29°33' W 090°27'3 3.5
2017-Dec-11 04:26N 29°33' W 090°24'2 3.0
2017-Dec-11 03:52N 29°35' W 090°23'1 3.2
2017-Dec-11 03:27N 29°36' W 090°22'1 3.4
2017-Dec-11 03:01N 29°37' W 090°21'  
2017-Dec-04 01:07N 29°34' W 090°57'1 6.3
2017-Dec-04 00:59N 29°34' W 090°56'3 6.4
2017-Dec-04 00:29N 29°32' W 090°53'3 6.3
2017-Dec-04 00:00N 29°32' W 090°49'3 6.3
2017-Dec-03 23:30N 29°32' W 090°46'3 5.8
2017-Dec-03 23:00N 29°34' W 090°43'3 5.3
2017-Dec-03 22:30N 29°37' W 090°42'2 4.6
2017-Dec-03 22:00N 29°36' W 090°40'3 6.4
2017-Dec-03 21:30N 29°35' W 090°37'3 5.7
2017-Dec-03 21:00N 29°34' W 090°33'  
Track history (hours):
 
Tides and Currents Weather Stations Pressure Air Temp Water Temp Dewpoint Dewpoint Depression Visibility Wind Speed Wind Dir Waves Ship Positions

Corky

Owner: Gulf South Marine Transportation, Inc., New Orleans, LA. More information available from US FCC via Universal Licensing System and Coast Guard Vessel Documentation Center.

Last reported at 2017-Dec-11 17:00 UTC. Time now 2017-Dec-13 01:49 UTC.
Position N 29°34' W 090°55'.

Length 18 m; draft 3.3 m.

Type: Tow > 200 m length. MMSI: 367006780.

Date/timePositionNaut miles runAvg speedWind from/ knotsBaromVisibWave heightAir tempDewpointWater temp
2017-Dec-11 17:00N 29°34' W 090°55'2 3.8
2017-Dec-11 16:26N 29°32' W 090°53'2 3.6
2017-Dec-11 16:01N 29°32' W 090°51'2 3.7
2017-Dec-11 15:30N 29°32' W 090°49'2 3.7
2017-Dec-11 15:00N 29°32' W 090°47'2 3.1
2017-Dec-11 14:30N 29°33' W 090°45'2 3.2
2017-Dec-11 14:01N 29°34' W 090°44'1 2.5
2017-Dec-11 13:30N 29°35' W 090°43'2 3.0
2017-Dec-11 13:01N 29°36' W 090°43'1 2.3
2017-Dec-11 12:30N 29°37' W 090°41'0 0.1
2017-Dec-11 12:00N 29°37' W 090°41'0 0.0
2017-Dec-11 11:30N 29°37' W 090°41'0 0.0
2017-Dec-11 11:00N 29°37' W 090°41'0 0.0
2017-Dec-11 10:30N 29°37' W 090°41'0 0.8
2017-Dec-11 10:00N 29°36' W 090°41'0 0.5
2017-Dec-11 09:30N 29°36' W 090°41'1 1.6
2017-Dec-11 09:01N 29°36' W 090°40'2 3.1
2017-Dec-11 08:30N 29°35' W 090°38'1 2.0
2017-Dec-11 08:01N 29°35' W 090°37'1 2.7
2017-Dec-11 07:30N 29°35' W 090°36'2 3.2
2017-Dec-11 07:00N 29°34' W 090°34'2 3.3
2017-Dec-11 06:30N 29°34' W 090°32'2 3.6
2017-Dec-11 05:55N 29°34' W 090°30'2 3.6
2017-Dec-11 05:21N 29°33' W 090°27'3 3.5
2017-Dec-11 04:26N 29°33' W 090°24'2 3.0
2017-Dec-11 03:52N 29°35' W 090°23'1 3.2
2017-Dec-11 03:27N 29°36' W 090°22'1 3.4
2017-Dec-11 03:01N 29°37' W 090°21'  
2017-Dec-04 01:07N 29°34' W 090°57'1 6.3
2017-Dec-04 00:59N 29°34' W 090°56'3 6.4
2017-Dec-04 00:29N 29°32' W 090°53'3 6.3
2017-Dec-04 00:00N 29°32' W 090°49'3 6.3
2017-Dec-03 23:30N 29°32' W 090°46'3 5.8
2017-Dec-03 23:00N 29°34' W 090°43'3 5.3
2017-Dec-03 22:30N 29°37' W 090°42'2 4.6
2017-Dec-03 22:00N 29°36' W 090°40'3 6.4
2017-Dec-03 21:30N 29°35' W 090°37'3 5.7
2017-Dec-03 21:00N 29°34' W 090°33'  

Dump ship's entire track history